Latest Weather Observations for Trepell

IDQ60801

Issued at 9:52 am EST Tuesday 7 December 2021 (issued every 10 minutes, with the page automatically refreshed every 10 minutes)

About weather observations | Map of weather stations | Latest weather observations for QLD | Other Formats
Station Details ID: 037036 Name: TREPELL AIRPORT Lat: -21.84 Lon: 140.89 Height: 266.2 m
Data from the previous 72 hours. | See also: Recent months at Trepell
Date/Time
EST
Temp
°C
App
Temp
°C
Dew
Point
°C
Rel
Hum
%
Delta-T
°C
Wind Press
QNH
hPa
Press
MSL
hPa
Rain since
9am
mm
Dir  Spd
km/h
Gust
km/h
Spd
kts
Gust
kts
07/09:30am 28.8 29.1 16.0 45 8.0 S 9 13 5 7 1012.9 1010.8 0.0
07/09:00am 27.0 27.4 16.3 52 6.7 S 9 13 5 7 1012.8 1010.7 0.2
07/08:30am 26.8 27.9 17.0 55 6.2 ENE 7 11 4 6 1012.7 1010.6 0.2
07/08:00am 26.0 26.6 15.7 53 6.3 N 7 9 4 5 1012.5 1010.4 0.2
07/07:30am 25.5 26.1 15.8 55 6.0 N 7 9 4 5 1012.2 1010.1 0.2
07/07:00am 24.7 25.2 15.6 57 5.6 NNW 7 11 4 6 1011.7 1009.7 0.2
07/06:30am 24.1 24.8 15.6 59 5.2 N 6 7 3 4 1011.4 1009.3 0.2
07/06:00am 24.0 24.5 15.5 59 5.2 NNW 7 13 4 7 1010.8 1008.7 0.2
07/05:30am 23.7 24.3 15.2 59 5.1 N 6 9 3 5 1010.7 1008.6 0.2
07/05:00am 23.7 24.2 15.5 60 5.0 N 7 11 4 6 1010.8 1008.7 0.2
07/04:30am 23.0 24.5 15.6 63 4.5 WSW 2 7 1 4 1010.9 1008.8 0.2
07/04:00am 22.9 23.1 15.7 64 4.4 SW 9 13 5 7 1011.1 1009.0 0.2
07/03:30am 22.7 21.9 16.0 66 4.1 SW 15 22 8 12 1011.6 1009.5 0.2
07/03:00am 22.6 19.5 15.7 65 4.2 SW 26 35 14 19 1011.7 1009.7 0.2
07/02:33am 22.8 18.9 17.0 70 3.6 WSW 33 52 18 28 1012.2 1010.1 0.2
07/02:30am 22.9 18.6 16.9 69 3.7 WSW 35 52 19 28 1012.3 1010.2 0.2
07/02:28am 23.1 19.2 16.9 68 3.8 WSW 33 52 18 28 1012.3 1010.2 0.2
07/02:00am 23.8 21.0 17.3 67 4.1 WSW 28 37 15 20 1012.0 1009.9 0.2
07/01:30am 24.0 19.9 17.3 66 4.2 WSW 35 44 19 24 1012.0 1009.9 0.2
07/01:17am 25.3 22.3 16.7 59 5.4 WSW 28 41 15 22 1011.6 1009.5 0.2
07/01:00am 27.7 27.4 13.3 41 8.6 SE 7 9 4 5 1010.9 1008.8 0.2
07/12:30am 27.8 27.0 13.0 40 8.8 ENE 9 13 5 7 1010.9 1008.8 0.2
07/12:00am 28.0 26.9 13.1 39 8.9 NE 11 19 6 10 1010.9 1008.8 0.2
 
Date/Time
EST
Temp
°C
App
Temp
°C
Dew
Point
°C
Rel
Hum
%
Delta-T
°C
Wind Press
QNH
hPa
Press
MSL
hPa
Rain since
9am
mm
Dir  Spd
km/h
Gust
km/h
Spd
kts
Gust
kts
06/11:30pm 27.8 26.3 13.0 40 8.8 ENE 13 17 7 9 1010.6 1008.5 0.2
06/11:00pm 28.1 25.9 13.2 39 8.9 E 17 20 9 11 1010.6 1008.5 0.2
06/10:30pm 28.3 25.6 13.4 40 8.9 ESE 20 30 11 16 1010.6 1008.5 0.2
06/10:00pm 29.0 25.4 13.2 37 9.5 SE 24 32 13 17 1010.2 1008.1 0.2
06/09:30pm 29.5 28.3 14.1 39 9.4 ENE 13 17 7 9 1009.7 1007.6 0.2
06/09:00pm 29.8 28.6 14.0 38 9.6 NE 13 17 7 9 1009.4 1007.3 0.2
06/08:30pm 30.5 28.2 14.2 37 10.0 NE 19 22 10 12 1008.9 1006.8 0.2
06/08:00pm 31.0 28.7 14.2 36 10.3 NE 19 24 10 13 1008.2 1006.0 0.2
06/07:30pm 31.9 29.8 13.6 32 11.2 NE 17 22 9 12 1007.6 1005.5 0.2
06/07:00pm 32.6 30.6 13.8 32 11.5 NNE 17 20 9 11 1007.4 1005.3 0.2
06/06:30pm 33.5 31.4 13.5 29 12.2 NNE 17 20 9 11 1007.2 1005.1 0.2
06/06:00pm 33.5 31.8 13.5 29 12.3 NNE 15 20 8 11 1007.2 1005.1 0.2
06/05:30pm 34.0 33.0 14.5 31 12.1 NNE 13 22 7 12 1007.1 1005.0 0.2
06/05:00pm 34.3 33.2 14.2 29 12.5 NE 13 20 7 11 1007.0 1004.9 0.2
06/04:30pm 35.1 34.2 14.9 29 12.7 NE 13 22 7 12 1007.3 1005.2 0.2
06/04:00pm 34.8 33.8 15.7 32 12.1 NNE 15 20 8 11 1007.5 1005.4 0.2
06/03:30pm 34.4 33.3 15.3 31 12.0 NNE 15 24 8 13 1007.6 1005.5 0.2
06/03:00pm 33.7 32.4 14.7 32 11.9 NNE 15 32 8 17 1007.9 1005.8 0.2
06/02:30pm 33.1 30.8 14.7 33 11.4 NNE 20 28 11 15 1008.3 1006.1 0.2
06/02:00pm 33.2 31.1 15.2 33 11.3 NNE 20 32 11 17 1008.9 1006.8 0.2
06/01:30pm 33.1 31.1 15.6 35 11.0 NNE 20 32 11 17 1009.4 1007.3 0.2
06/01:00pm 32.1 28.7 14.7 35 10.8 NNE 26 35 14 19 1009.9 1007.8 0.2
06/12:30pm 31.3 27.3 15.3 38 10.0 NNE 30 44 16 24 1010.4 1008.3 0.2
06/12:00pm 30.3 27.6 16.7 44 8.6 NNE 26 35 14 19 1011.0 1008.9 0.2
06/11:30am 30.0 26.7 16.1 43 8.7 NNE 28 35 15 19 1011.4 1009.3 0.2
06/11:00am 29.9 27.8 16.3 43 8.6 NE 22 32 12 17 1012.0 1009.9 0.2
06/10:30am 29.1 28.6 17.0 48 7.7 NNE 15 28 8 15 1012.1 1010.0 0.2
06/10:00am 27.5 27.2 16.5 51 6.9 N 13 20 7 11 1012.5 1010.4 0.2
06/09:30am 27.6 27.1 15.9 49 7.3 N 13 20 7 11 1012.5 1010.4 0.2
06/09:00am 27.4 24.3 15.7 48 7.2 NE 26 33 14 18 1012.1 1010.0 0.0
06/08:30am 25.6 24.2 17.0 59 5.4 NE 20 30 11 16 1011.8 1009.8 0.0
06/08:00am 24.5 23.7 17.2 63 4.6 NNE 17 20 9 11 1011.7 1009.7 0.0
06/07:30am 23.5 22.5 17.5 69 3.8 NNE 19 22 10 12 1011.2 1009.1 0.0
06/07:00am 23.2 22.1 17.7 71 3.5 NNE 20 26 11 14 1010.5 1008.4 0.0
06/06:30am 22.7 22.3 17.2 71 3.4 N 15 22 8 12 1010.4 1008.3 0.0
06/06:00am 22.8 20.6 16.8 69 3.7 NE 24 30 13 16 1009.6 1007.5 0.0
06/05:30am 23.0 19.2 16.8 68 3.8 ENE 32 39 17 21 1008.9 1006.8 0.0
06/05:00am 22.5 17.9 17.2 72 3.3 NE 37 46 20 25 1008.3 1006.1 0.0
06/04:49am 23.1 19.6 16.4 66 4.1 ENE 30 41 16 22 1008.9 1006.8 0.0
06/04:30am 22.8 21.5 16.8 69 3.7 E 19 22 10 12 1010.0 1007.9 0.0
06/04:00am 23.8 23.0 17.1 66 4.2 SE 17 22 9 12 1010.5 1008.4 0.0
06/03:30am 23.9 23.8 16.9 65 4.4 SSE 13 17 7 9 1010.6 1008.5 0.0
06/03:00am 25.0 24.3 15.3 55 5.9 SSE 13 19 7 10 1010.6 1008.5 0.0
06/02:30am 25.2 25.2 15.2 54 6.1 SSE 9 13 5 7 1011.1 1009.0 0.0
06/02:00am 25.3 24.6 15.3 54 6.1 S 13 17 7 9 1010.9 1008.8 0.0
06/01:30am 25.4 23.5 15.1 53 6.3 S 19 24 10 13 1010.9 1008.8 0.0
06/01:00am 25.6 24.0 15.0 52 6.4 S 17 24 9 13 1011.3 1009.2 0.0
06/12:30am 25.4 22.8 16.0 56 5.8 S 24 37 13 20 1011.1 1009.0 0.0
06/12:00am 25.3 22.1 16.4 57 5.5 SSW 28 37 15 20 1011.2 1009.1 0.0
 
Date/Time
EST
Temp
°C
App
Temp
°C
Dew
Point
°C
Rel
Hum
%
Delta-T
°C
Wind Press
QNH
hPa
Press
MSL
hPa
Rain since
9am
mm
Dir  Spd
km/h
Gust
km/h
Spd
kts
Gust
kts
05/11:30pm 25.8 23.8 16.4 56 5.8 SW 22 30 12 16 1012.2 1010.1 0.0
05/11:11pm 26.4 23.0 15.8 52 6.5 WSW 28 46 15 25 1012.3 1010.2 0.0
05/11:00pm 28.0 25.2 14.3 43 8.3 WSW 22 28 12 15 1012.4 1010.3 0.0
05/10:30pm 27.8 26.5 14.8 45 7.9 SE 15 22 8 12 1011.0 1008.9 0.0
05/10:00pm 27.6 25.0 14.9 45 7.8 SE 22 30 12 16 1010.1 1008.0 0.0
05/09:30pm 28.6 23.5 13.7 40 9.0 SE 33 44 18 24 1009.6 1007.5 0.0
05/09:15pm 30.2 24.9 12.6 34 10.5 SE 32 50 17 27 1009.5 1007.4 0.0
05/09:14pm 30.4 25.6 12.8 34 10.5 SE 30 46 16 25 1009.5 1007.4 0.0
05/09:00pm 30.9 27.6 12.8 33 10.9 SE 22 28 12 15 1009.4 1007.3 0.0
05/08:30pm 32.8 30.2 10.8 26 12.9 SSE 15 30 8 16 1008.5 1006.4 0.0
05/08:00pm 32.9 27.7 10.3 25 13.2 E 28 37 15 20 1007.0 1004.9 0.0
05/07:30pm 33.8 30.0 9.8 23 13.9 ESE 20 24 11 13 1007.0 1004.9 0.0
05/07:00pm 34.1 29.0 10.7 24 13.8 E 28 35 15 19 1006.2 1004.1 0.0
05/06:30pm 35.1 31.2 9.5 21 14.9 E 20 32 11 17 1006.0 1003.9 0.0
05/06:00pm 35.3 32.0 9.7 21 15.0 ESE 17 20 9 11 1005.6 1003.5 0.0
05/05:30pm 35.4 31.2 9.7 21 15.0 ESE 22 32 12 17 1005.7 1003.6 0.0
05/05:00pm 34.6 29.1 11.7 25 13.7 ESE 32 48 17 26 1006.1 1004.0 0.0
05/04:52pm 35.6 31.1 9.9 21 15.0 SE 24 48 13 26 1006.1 1004.0 0.0
05/04:30pm 35.0 34.5 10.8 23 14.3 S 4 11 2 6 1006.4 1004.3 0.0
05/04:00pm 35.8 31.1 9.3 20 15.4 NNE 24 33 13 18 1005.9 1003.8 0.0
05/03:39pm 35.7 32.1 10.0 21 15.1 NE 19 39 10 21 1005.8 1003.7 0.0
05/03:30pm 37.3 34.8 9.8 19 16.2 SE 13 24 7 13 1006.0 1003.9 0.0
05/03:00pm 38.8 36.0 8.5 16 17.7 NW 13 22 7 12 1005.9 1003.8 0.0
05/02:30pm 39.2 36.4 6.8 14 18.4 NE 11 22 6 12 1006.3 1004.2 0.0
05/02:00pm 39.0 37.0 8.6 16 17.7 WNW 9 24 5 13 1006.8 1004.7 0.0
05/01:30pm 39.8 36.9 8.3 15 18.3 ENE 13 24 7 13 1007.4 1005.3 0.0
05/01:00pm 39.0 35.3 9.5 17 17.4 NNE 19 28 10 15 1007.9 1005.8 0.0
05/12:30pm 38.8 37.2 10.2 18 17.0 NW 9 17 5 9 1008.4 1006.3 0.0
05/12:00pm 37.9 34.4 10.3 19 16.4 NNE 19 35 10 19 1009.0 1006.9 0.0
05/11:30am 37.0 33.3 9.6 19 16.1 N 19 28 10 15 1009.5 1007.4 0.0
05/11:00am 37.2 33.6 10.5 20 15.9 NNE 20 33 11 18 1010.0 1007.9 0.0
05/10:30am 36.9 33.4 11.0 21 15.5 NNE 20 37 11 20 1010.2 1008.1 0.0
05/10:00am 36.4 32.4 9.1 19 15.9 NNE 20 32 11 17 1010.5 1008.4 0.0
05/09:30am 36.2 32.6 9.7 20 15.5 NE 19 26 10 14 1010.8 1008.7 0.0
05/09:00am 35.3 31.7 9.7 21 14.9 NE 19 26 10 14 1011.0 1008.9 0.0
05/08:30am 34.9 31.5 10.7 23 14.3 ENE 19 26 10 14 1011.1 1009.0 0.0
05/08:00am 33.8 29.8 10.4 24 13.7 ENE 22 32 12 17 1011.0 1008.9 0.0
05/07:30am 32.7 29.0 10.1 25 13.1 E 20 28 11 15 1010.9 1008.8 0.0
05/07:00am 30.9 27.3 9.7 27 12.1 ESE 19 26 10 14 1010.5 1008.4 0.0
05/06:30am 28.9 26.2 9.1 29 11.1 E 13 17 7 9 1010.2 1008.1 0.0
05/06:00am 26.9 25.2 8.4 31 10.2 NE 7 9 4 5 1009.8 1007.7 0.0
05/05:30am 27.7 25.3 8.6 30 10.6 ESE 11 13 6 7 1009.5 1007.4 0.0
05/05:00am 28.4 25.8 9.2 30 10.8 ESE 13 17 7 9 1009.3 1007.2 0.0
05/04:30am 28.3 26.4 9.1 30 10.7 E 9 15 5 8 1008.9 1006.8 0.0
05/04:00am 28.5 26.9 8.2 28 11.2 NE 6 7 3 4 1008.8 1006.7 0.0
05/03:30am 28.7 26.9 7.9 27 11.4 ENE 7 7 4 4 1009.0 1006.9 0.0
05/03:00am 28.8 27.2 7.9 27 11.5 ENE 6 7 3 4 1009.2 1007.1 0.0
05/02:30am 29.4 27.1 7.3 25 12.1 E 9 15 5 8 1009.2 1007.1 0.0
05/02:00am 30.4 28.0 8.7 26 12.2 ESE 11 15 6 8 1009.3 1007.2 0.0
05/01:30am 30.6 28.1 8.3 25 12.4 ESE 11 15 6 8 1009.3 1007.2 0.0
05/01:00am 31.5 29.2 9.1 25 12.7 ESE 11 17 6 9 1009.6 1007.5 0.0
05/12:30am 31.6 29.4 8.0 23 13.2 ESE 9 13 5 7 1009.5 1007.4 0.0
05/12:00am 33.0 29.6 7.8 21 14.1 SE 15 22 8 12 1009.8 1007.7 0.0
 
Date/Time
EST
Temp
°C
App
Temp
°C
Dew
Point
°C
Rel
Hum
%
Delta-T
°C
Wind Press
QNH
hPa
Press
MSL
hPa
Rain since
9am
mm
Dir  Spd
km/h
Gust
km/h
Spd
kts
Gust
kts
04/11:30pm 31.2 28.3 6.3 21 13.5 E 11 15 6 8 1009.7 1007.6 0.0
04/11:00pm 31.9 29.5 6.9 21 13.7 ESE 9 11 5 6 1009.6 1007.5 0.0
04/10:30pm 32.5 29.6 6.7 20 14.2 ESE 11 15 6 8 1009.6 1007.5 0.0
04/10:00pm 30.7 27.8 6.6 22 13.1 ENE 11 13 6 7 1009.4 1007.3 0.0
04/09:30pm 32.5 29.6 6.7 20 14.2 E 11 11 6 6 1009.1 1007.0 0.0
04/09:00pm 34.4 31.4 5.8 17 15.7 E 11 13 6 7 1009.0 1006.9 0.0
04/08:30pm 36.2 33.3 6.4 16 16.6 ENE 11 17 6 9 1008.7 1006.6 0.0
04/08:00pm 36.4 30.7 8.3 18 16.1 ESE 28 39 15 21 1008.8 1006.7 0.0
04/07:57pm 36.7 31.2 7.7 17 16.5 ESE 26 37 14 20 1008.7 1006.6 0.0
04/07:30pm 36.9 33.3 5.0 14 17.4 ESE 13 17 7 9 1008.2 1006.0 0.0
04/07:00pm 37.9 32.0 5.8 14 17.9 SE 26 43 14 23 1007.8 1005.7 0.0
04/06:31pm 38.2 32.0 6.0 14 18.0 SE 28 46 15 25 1007.5 1005.4 0.0
04/06:30pm 38.6 32.8 6.3 14 18.1 SE 26 46 14 25 1007.5 1005.4 0.0
04/06:00pm 38.0 33.3 5.9 14 17.9 SSE 20 24 11 13 1007.2 1005.1 0.0
04/05:30pm 39.3 34.5 5.8 13 18.7 ESE 20 35 11 19 1007.1 1005.0 0.0
04/05:00pm 39.8 34.4 6.2 13 19.0 SE 24 37 13 20 1007.0 1004.9 0.0
04/04:30pm 39.9 34.6 5.1 12 19.3 ESE 22 35 12 19 1007.2 1005.1 0.0
04/04:00pm 40.5 34.6 5.6 12 19.6 ESE 26 37 14 20 1007.3 1005.2 0.0
04/03:30pm 41.6 35.8 6.4 12 20.1 SE 26 37 14 20 1007.3 1005.2 0.0
04/03:00pm 40.8 35.3 5.8 12 19.8 E 24 39 13 21 1007.7 1005.6 0.0
04/02:30pm 41.4 36.0 6.3 12 20.0 E 24 37 13 20 1008.4 1006.3 0.0
04/02:00pm 40.5 33.8 5.6 12 19.6 E 30 43 16 23 1009.1 1007.0 0.0
04/01:30pm 40.9 35.0 5.9 12 19.8 E 26 43 14 23 1009.7 1007.6 0.0
04/01:00pm 40.1 33.3 5.3 12 19.4 E 30 48 16 26 1010.3 1008.2 0.0
04/12:59pm 39.7 32.9 5.0 12 19.2 E 30 48 16 26 1010.4 1008.3 0.0
04/12:30pm 39.3 32.4 4.7 12 19.0 E 30 44 16 24 1010.9 1008.8 0.0
04/12:00pm 39.6 33.4 6.1 13 18.9 E 28 43 15 23 1011.4 1009.3 0.0
04/11:30am 39.6 34.6 8.1 15 18.3 E 24 39 13 21 1011.8 1009.8 0.0
04/11:00am 38.2 35.0 11.3 20 16.2 E 19 32 10 17 1012.5 1010.4 0.0
04/10:30am 38.5 34.2 10.8 19 16.6 E 24 41 13 22 1012.8 1010.7 0.0
04/10:00am 36.8 33.0 12.3 23 14.9 E 24 32 13 17 1013.1 1011.0 0.0

Other formats

Comma delimited format used in spreadsheet applications
http://www.bom.gov.au/fwo/IDQ60801/IDQ60801.94338.axf

JavaScript Object Notation format (JSON) in row-major order
http://www.bom.gov.au/fwo/IDQ60801/IDQ60801.94338.json

Data quality

Most of these data are generated automatically and are frequently updated. Quality checks on data are not normally performed. It is possible for incorrect values to appear. Refer to information at About Latest Weather Observations and please check the disclaimer before using these data.